sensor_id;sensor_type;location;lat;lon;timestamp;pressure;altitude;pressure_sealevel;temperature;humidity
64298;BME280;50639;53.270;7.956;2023-02-12T00:01:09;101983.63;;;8.17;100.00
64298;BME280;50639;53.270;7.956;2023-02-12T00:03:36;101920.06;;;8.11;100.00
64298;BME280;50639;53.270;7.956;2023-02-12T00:06:02;102012.44;;;8.15;100.00
64298;BME280;50639;53.270;7.956;2023-02-12T00:08:28;101993.50;;;8.16;100.00
64298;BME280;50639;53.270;7.956;2023-02-12T00:10:54;101969.75;;;8.13;100.00
64298;BME280;50639;53.270;7.956;2023-02-12T00:13:19;101689.44;;;8.06;100.00
64298;BME280;50639;53.270;7.956;2023-02-12T00:15:45;101759.09;;;8.06;100.00
64298;BME280;50639;53.270;7.956;2023-02-12T00:18:10;101812.19;;;8.02;100.00
64298;BME280;50639;53.270;7.956;2023-02-12T00:20:37;101768.97;;;8.05;100.00
64298;BME280;50639;53.270;7.956;2023-02-12T00:23:03;101822.41;;;8.13;100.00
64298;BME280;50639;53.270;7.956;2023-02-12T00:25:29;101683.72;;;8.09;100.00
64298;BME280;50639;53.270;7.956;2023-02-12T00:27:55;101728.41;;;8.08;100.00
64298;BME280;50639;53.270;7.956;2023-02-12T00:30:20;101676.63;;;8.01;100.00
64298;BME280;50639;53.270;7.956;2023-02-12T00:32:45;101741.53;;;8.03;100.00
64298;BME280;50639;53.270;7.956;2023-02-12T00:35:11;101755.41;;;8.07;100.00
64298;BME280;50639;53.270;7.956;2023-02-12T00:37:38;101757.69;;;8.10;100.00
64298;BME280;50639;53.270;7.956;2023-02-12T00:40:04;101773.56;;;8.11;100.00
64298;BME280;50639;53.270;7.956;2023-02-12T00:42:30;101727.38;;;8.09;100.00
64298;BME280;50639;53.270;7.956;2023-02-12T00:44:56;101741.81;;;8.08;100.00
64298;BME280;50639;53.270;7.956;2023-02-12T00:47:21;101760.38;;;8.10;100.00
64298;BME280;50639;53.270;7.956;2023-02-12T00:49:48;101796.88;;;8.11;100.00
64298;BME280;50639;53.270;7.956;2023-02-12T00:52:14;101884.97;;;8.20;100.00
64298;BME280;50639;53.270;7.956;2023-02-12T00:54:39;101823.06;;;8.15;100.00
64298;BME280;50639;53.270;7.956;2023-02-12T00:57:05;101796.03;;;8.10;100.00
64298;BME280;50639;53.270;7.956;2023-02-12T00:59:30;101820.97;;;8.11;100.00
64298;BME280;50639;53.270;7.956;2023-02-12T01:01:56;101832.88;;;8.08;100.00
64298;BME280;50639;53.270;7.956;2023-02-12T01:04:22;101851.44;;;8.10;100.00
64298;BME280;50639;53.270;7.956;2023-02-12T01:06:48;101876.28;;;8.04;100.00
64298;BME280;50639;53.270;7.956;2023-02-12T01:09:14;101935.50;;;8.09;100.00
64298;BME280;50639;53.270;7.956;2023-02-12T01:11:39;101847.91;;;8.09;100.00
64298;BME280;50639;53.270;7.956;2023-02-12T01:14:05;101876.66;;;8.01;100.00
64298;BME280;50639;53.270;7.956;2023-02-12T01:16:30;101876.66;;;8.01;100.00
64298;BME280;50639;53.270;7.956;2023-02-12T01:18:58;101854.75;;;7.97;100.00
64298;BME280;50639;53.270;7.956;2023-02-12T01:21:26;101890.50;;;8.04;100.00
64298;BME280;50639;53.270;7.956;2023-02-12T01:23:53;101984.38;;;8.11;100.00
64298;BME280;50639;53.270;7.956;2023-02-12T01:26:19;101932.63;;;8.10;100.00
64298;BME280;50639;53.270;7.956;2023-02-12T01:28:49;101966.06;;;8.14;100.00
64298;BME280;50639;53.270;7.956;2023-02-12T01:31:20;101882.66;;;8.03;100.00
64298;BME280;50639;53.270;7.956;2023-02-12T01:33:47;101989.88;;;8.09;100.00
64298;BME280;50639;53.270;7.956;2023-02-12T01:36:13;101990.38;;;8.13;100.00
64298;BME280;50639;53.270;7.956;2023-02-12T01:38:39;101987.50;;;8.14;100.00
64298;BME280;50639;53.270;7.956;2023-02-12T01:41:08;102002.09;;;8.12;100.00
64298;BME280;50639;53.270;7.956;2023-02-12T01:43:35;102070.16;;;8.17;100.00
64298;BME280;50639;53.270;7.956;2023-02-12T01:46:01;102084.41;;;8.18;100.00
64298;BME280;50639;53.270;7.956;2023-02-12T01:48:31;102110.00;;;8.20;100.00
64298;BME280;50639;53.270;7.956;2023-02-12T01:50:58;102068.13;;;8.19;100.00
64298;BME280;50639;53.270;7.956;2023-02-12T01:53:34;102104.47;;;8.22;100.00
64298;BME280;50639;53.270;7.956;2023-02-12T01:56:00;102198.59;;;8.27;100.00
64298;BME280;50639;53.270;7.956;2023-02-12T01:58:29;102206.63;;;8.27;100.00
64298;BME280;50639;53.270;7.956;2023-02-12T02:00:58;102218.16;;;8.27;100.00
64298;BME280;50639;53.270;7.956;2023-02-12T02:03:24;102235.91;;;8.28;100.00
64298;BME280;50639;53.270;7.956;2023-02-12T02:06:16;102197.41;;;8.21;100.00
64298;BME280;50639;53.270;7.956;2023-02-12T02:08:43;102280.44;;;8.21;100.00
64298;BME280;50639;53.270;7.956;2023-02-12T02:11:09;102143.59;;;8.08;100.00
64298;BME280;50639;53.270;7.956;2023-02-12T02:13:57;102370.91;;;8.19;100.00
64298;BME280;50639;53.270;7.956;2023-02-12T02:16:46;102311.84;;;8.13;100.00
64298;BME280;50639;53.270;7.956;2023-02-12T02:25:06;102269.50;;;8.08;100.00
64298;BME280;50639;53.270;7.956;2023-02-12T02:38:22;102088.19;;;7.86;100.00
64298;BME280;50639;53.270;7.956;2023-02-12T02:41:01;102259.88;;;7.91;100.00
64298;BME280;50639;53.270;7.956;2023-02-12T02:43:34;102365.28;;;8.06;100.00
64298;BME280;50639;53.270;7.956;2023-02-12T02:46:15;102250.28;;;8.05;100.00
64298;BME280;50639;53.270;7.956;2023-02-12T02:48:53;102104.84;;;7.96;100.00
64298;BME280;50639;53.270;7.956;2023-02-12T02:51:25;102240.56;;;8.04;100.00
64298;BME280;50639;53.270;7.956;2023-02-12T02:54:04;102121.19;;;8.01;100.00
64298;BME280;50639;53.270;7.956;2023-02-12T02:56:34;102278.00;;;8.12;100.00
64298;BME280;50639;53.270;7.956;2023-02-12T02:59:13;102219.06;;;8.12;100.00
64298;BME280;50639;53.270;7.956;2023-02-12T03:01:55;102265.75;;;8.17;100.00
64298;BME280;50639;53.270;7.956;2023-02-12T03:04:43;102231.56;;;8.19;100.00
64298;BME280;50639;53.270;7.956;2023-02-12T03:07:18;102093.53;;;8.09;100.00
64298;BME280;50639;53.270;7.956;2023-02-12T03:09:56;102183.78;;;8.08;100.00
64298;BME280;50639;53.270;7.956;2023-02-12T03:12:32;102243.38;;;8.10;100.00
64298;BME280;50639;53.270;7.956;2023-02-12T03:15:08;102239.50;;;8.13;100.00
64298;BME280;50639;53.270;7.956;2023-02-12T03:17:42;102228.94;;;8.11;100.00
64298;BME280;50639;53.270;7.956;2023-02-12T03:20:17;102163.84;;;8.11;100.00
64298;BME280;50639;53.270;7.956;2023-02-12T03:22:49;102226.25;;;8.11;100.00
64298;BME280;50639;53.270;7.956;2023-02-12T03:25:32;102250.88;;;8.15;100.00
64298;BME280;50639;53.270;7.956;2023-02-12T03:28:03;102316.97;;;8.22;100.00
64298;BME280;50639;53.270;7.956;2023-02-12T03:30:54;102181.88;;;8.17;100.00
64298;BME280;50639;53.270;7.956;2023-02-12T03:36:05;102186.41;;;8.16;100.00
64298;BME280;50639;53.270;7.956;2023-02-12T03:38:45;102326.00;;;8.21;100.00
64298;BME280;50639;53.270;7.956;2023-02-12T03:43:49;102350.13;;;8.21;100.00
64298;BME280;50639;53.270;7.956;2023-02-12T03:46:20;102362.53;;;8.22;100.00
64298;BME280;50639;53.270;7.956;2023-02-12T03:49:10;102361.88;;;8.20;100.00
64298;BME280;50639;53.270;7.956;2023-02-12T03:51:39;102432.38;;;8.21;100.00
64298;BME280;50639;53.270;7.956;2023-02-12T03:54:07;102450.09;;;8.22;100.00
64298;BME280;50639;53.270;7.956;2023-02-12T03:56:58;102431.53;;;8.20;100.00
64298;BME280;50639;53.270;7.956;2023-02-12T03:59:23;102443.91;;;8.21;100.00
64298;BME280;50639;53.270;7.956;2023-02-12T04:01:51;102478.59;;;8.23;100.00
64298;BME280;50639;53.270;7.956;2023-02-12T04:04:17;102506.19;;;8.23;100.00
64298;BME280;50639;53.270;7.956;2023-02-12T04:06:46;102440.06;;;8.16;100.00
64298;BME280;50639;53.270;7.956;2023-02-12T04:09:14;102481.09;;;8.16;100.00
64298;BME280;50639;53.270;7.956;2023-02-12T04:17:13;102493.81;;;8.22;100.00
64298;BME280;50639;53.270;7.956;2023-02-12T04:20:15;102526.97;;;8.21;100.00
64298;BME280;50639;53.270;7.956;2023-02-12T04:25:42;102417.09;;;8.21;100.00
64298;BME280;50639;53.270;7.956;2023-02-12T04:33:54;102478.44;;;8.16;100.00
64298;BME280;50639;53.270;7.956;2023-02-12T04:36:26;102470.72;;;8.13;100.00
64298;BME280;50639;53.270;7.956;2023-02-12T04:38:59;102377.16;;;8.04;100.00
64298;BME280;50639;53.270;7.956;2023-02-12T04:41:27;102546.09;;;8.10;100.00
64298;BME280;50639;53.270;7.956;2023-02-12T04:43:54;102544.41;;;8.09;100.00
64298;BME280;50639;53.270;7.956;2023-02-12T04:46:19;102472.25;;;8.08;100.00
64298;BME280;50639;53.270;7.956;2023-02-12T04:48:57;102571.03;;;8.11;100.00
64298;BME280;50639;53.270;7.956;2023-02-12T04:51:23;102543.06;;;8.13;100.00
64298;BME280;50639;53.270;7.956;2023-02-12T04:53:49;102478.28;;;8.10;100.00
64298;BME280;50639;53.270;7.956;2023-02-12T04:56:15;102512.91;;;8.11;100.00
64298;BME280;50639;53.270;7.956;2023-02-12T04:58:41;102523.50;;;8.13;100.00
64298;BME280;50639;53.270;7.956;2023-02-12T05:01:07;102500.19;;;8.13;100.00
64298;BME280;50639;53.270;7.956;2023-02-12T05:03:34;102464.69;;;8.11;100.00
64298;BME280;50639;53.270;7.956;2023-02-12T05:06:04;102380.31;;;8.07;100.00
64298;BME280;50639;53.270;7.956;2023-02-12T05:08:29;102459.69;;;8.08;100.00
64298;BME280;50639;53.270;7.956;2023-02-12T05:10:55;102544.75;;;8.14;100.00
64298;BME280;50639;53.270;7.956;2023-02-12T05:13:20;102403.44;;;8.08;100.00
64298;BME280;50639;53.270;7.956;2023-02-12T05:15:46;102333.47;;;8.03;100.00
64298;BME280;50639;53.270;7.956;2023-02-12T05:18:11;102373.50;;;8.05;100.00
64298;BME280;50639;53.270;7.956;2023-02-12T05:20:37;102333.81;;;8.00;100.00
64298;BME280;50639;53.270;7.956;2023-02-12T05:23:02;102276.25;;;7.96;100.00
64298;BME280;50639;53.270;7.956;2023-02-12T05:25:27;102293.31;;;7.95;100.00
64298;BME280;50639;53.270;7.956;2023-02-12T05:27:53;102258.69;;;7.94;100.00
64298;BME280;50639;53.270;7.956;2023-02-12T05:30:20;102170.03;;;7.89;100.00
64298;BME280;50639;53.270;7.956;2023-02-12T05:32:46;102280.78;;;7.96;100.00
64298;BME280;50639;53.270;7.956;2023-02-12T05:35:11;102236.09;;;7.96;100.00
64298;BME280;50639;53.270;7.956;2023-02-12T05:37:37;102147.56;;;7.90;100.00
64298;BME280;50639;53.270;7.956;2023-02-12T05:40:04;102217.53;;;7.95;100.00
64298;BME280;50639;53.270;7.956;2023-02-12T05:42:29;102209.31;;;7.96;100.00
64298;BME280;50639;53.270;7.956;2023-02-12T05:44:55;102249.75;;;8.01;100.00
64298;BME280;50639;53.270;7.956;2023-02-12T05:47:20;102209.59;;;8.01;100.00
64298;BME280;50639;53.270;7.956;2023-02-12T05:49:46;102141.81;;;8.01;100.00
64298;BME280;50639;53.270;7.956;2023-02-12T05:52:12;102168.75;;;7.99;100.00
64298;BME280;50639;53.270;7.956;2023-02-12T05:54:37;102189.19;;;8.00;100.00
64298;BME280;50639;53.270;7.956;2023-02-12T05:57:02;102206.56;;;8.04;100.00
64298;BME280;50639;53.270;7.956;2023-02-12T05:59:28;102230.31;;;8.07;100.00
64298;BME280;50639;53.270;7.956;2023-02-12T06:01:53;102202.72;;;8.07;100.00
64298;BME280;50639;53.270;7.956;2023-02-12T06:04:24;102064.31;;;7.99;100.00
64298;BME280;50639;53.270;7.956;2023-02-12T06:06:51;102152.53;;;8.01;100.00
64298;BME280;50639;53.270;7.956;2023-02-12T06:09:17;102177.28;;;8.03;100.00
64298;BME280;50639;53.270;7.956;2023-02-12T06:11:42;102191.50;;;8.03;100.00
64298;BME280;50639;53.270;7.956;2023-02-12T06:14:12;102048.63;;;7.96;100.00
64298;BME280;50639;53.270;7.956;2023-02-12T06:16:39;102183.84;;;8.00;100.00
64298;BME280;50639;53.270;7.956;2023-02-12T06:19:05;102221.16;;;8.02;100.00
64298;BME280;50639;53.270;7.956;2023-02-12T06:21:31;102145.88;;;7.97;100.00
64298;BME280;50639;53.270;7.956;2023-02-12T06:23:57;102158.41;;;7.96;100.00
64298;BME280;50639;53.270;7.956;2023-02-12T06:26:23;102185.84;;;7.98;100.00
64298;BME280;50639;53.270;7.956;2023-02-12T06:28:49;102236.56;;;8.00;100.00
64298;BME280;50639;53.270;7.956;2023-02-12T06:31:29;102166.63;;;7.95;100.00
64298;BME280;50639;53.270;7.956;2023-02-12T06:33:56;102189.44;;;7.91;100.00
64298;BME280;50639;53.270;7.956;2023-02-12T06:36:23;102292.31;;;7.96;100.00
64298;BME280;50639;53.270;7.956;2023-02-12T06:38:49;102324.75;;;8.01;100.00
64298;BME280;50639;53.270;7.956;2023-02-12T06:41:15;102100.28;;;7.82;100.00
64298;BME280;50639;53.270;7.956;2023-02-12T06:43:40;102257.22;;;7.83;100.00
64298;BME280;50639;53.270;7.956;2023-02-12T06:46:07;102192.69;;;7.78;100.00
64298;BME280;50639;53.270;7.956;2023-02-12T06:48:32;102302.09;;;7.81;100.00
64298;BME280;50639;53.270;7.956;2023-02-12T06:51:08;102415.19;;;7.91;100.00
64298;BME280;50639;53.270;7.956;2023-02-12T06:53:34;102307.59;;;7.88;100.00
64298;BME280;50639;53.270;7.956;2023-02-12T06:56:01;102338.88;;;7.87;100.00
64298;BME280;50639;53.270;7.956;2023-02-12T06:58:27;102374.88;;;7.93;100.00
64298;BME280;50639;53.270;7.956;2023-02-12T07:00:53;102169.56;;;7.77;100.00
64298;BME280;50639;53.270;7.956;2023-02-12T07:03:18;102285.91;;;7.75;100.00
64298;BME280;50639;53.270;7.956;2023-02-12T07:05:44;102363.38;;;7.76;100.00
64298;BME280;50639;53.270;7.956;2023-02-12T07:08:10;102331.09;;;7.70;100.00
64298;BME280;50639;53.270;7.956;2023-02-12T07:10:35;102476.16;;;7.73;100.00
64298;BME280;50639;53.270;7.956;2023-02-12T07:13:01;102587.94;;;7.79;100.00
64298;BME280;50639;53.270;7.956;2023-02-12T07:15:28;102471.31;;;7.77;100.00
64298;BME280;50639;53.270;7.956;2023-02-12T07:17:54;102535.56;;;7.77;100.00
64298;BME280;50639;53.270;7.956;2023-02-12T07:20:20;102625.44;;;7.79;100.00
64298;BME280;50639;53.270;7.956;2023-02-12T07:22:45;102675.13;;;7.74;100.00
64298;BME280;50639;53.270;7.956;2023-02-12T07:25:11;102593.09;;;7.65;100.00
64298;BME280;50639;53.270;7.956;2023-02-12T07:27:36;102686.00;;;7.64;100.00
64298;BME280;50639;53.270;7.956;2023-02-12T07:30:03;102843.13;;;7.72;100.00
64298;BME280;50639;53.270;7.956;2023-02-12T07:32:31;102739.19;;;7.67;100.00
64298;BME280;50639;53.270;7.956;2023-02-12T07:34:57;102729.47;;;7.58;100.00
64298;BME280;50639;53.270;7.956;2023-02-12T07:37:22;102857.63;;;7.61;100.00
64298;BME280;50639;53.270;7.956;2023-02-12T07:39:48;102889.59;;;7.63;100.00
64298;BME280;50639;53.270;7.956;2023-02-12T07:42:16;102999.25;;;7.64;100.00
64298;BME280;50639;53.270;7.956;2023-02-12T07:44:47;103081.31;;;7.73;100.00
64298;BME280;50639;53.270;7.956;2023-02-12T07:47:14;102924.09;;;7.66;100.00
64298;BME280;50639;53.270;7.956;2023-02-12T07:49:40;102917.22;;;7.63;100.00
64298;BME280;50639;53.270;7.956;2023-02-12T07:52:05;102906.50;;;7.63;100.00
64298;BME280;50639;53.270;7.956;2023-02-12T07:54:32;103040.44;;;7.71;100.00
64298;BME280;50639;53.270;7.956;2023-02-12T07:56:57;103062.56;;;7.73;100.00
64298;BME280;50639;53.270;7.956;2023-02-12T07:59:25;103050.88;;;7.74;100.00
64298;BME280;50639;53.270;7.956;2023-02-12T08:01:55;103172.31;;;7.83;100.00
64298;BME280;50639;53.270;7.956;2023-02-12T08:04:23;103229.44;;;7.91;100.00
64298;BME280;50639;53.270;7.956;2023-02-12T08:06:52;103088.09;;;7.85;100.00
64298;BME280;50639;53.270;7.956;2023-02-12T08:09:24;103231.16;;;7.92;100.00
64298;BME280;50639;53.270;7.956;2023-02-12T08:11:50;103211.19;;;7.87;100.00
64298;BME280;50639;53.270;7.956;2023-02-12T08:14:18;103308.31;;;7.89;100.00
64298;BME280;50639;53.270;7.956;2023-02-12T08:16:44;103225.88;;;7.83;100.00
64298;BME280;50639;53.270;7.956;2023-02-12T08:19:10;103372.03;;;7.85;100.00
64298;BME280;50639;53.270;7.956;2023-02-12T08:21:36;103483.41;;;7.88;100.00
64298;BME280;50639;53.270;7.956;2023-02-12T08:24:02;103596.63;;;7.90;100.00
64298;BME280;50639;53.270;7.956;2023-02-12T08:26:29;103684.16;;;7.89;100.00
64298;BME280;50639;53.270;7.956;2023-02-12T08:29:00;103767.94;;;7.91;100.00
64298;BME280;50639;53.270;7.956;2023-02-12T08:31:32;103697.88;;;7.86;100.00
64298;BME280;50639;53.270;7.956;2023-02-12T08:33:58;103953.97;;;7.98;100.00
64298;BME280;50639;53.270;7.956;2023-02-12T08:36:27;103847.06;;;7.95;100.00
64298;BME280;50639;53.270;7.956;2023-02-12T08:38:56;103826.88;;;7.91;100.00
64298;BME280;50639;53.270;7.956;2023-02-12T08:41:24;103614.09;;;7.65;100.00
64298;BME280;50639;53.270;7.956;2023-02-12T08:43:52;103897.91;;;7.76;100.00
64298;BME280;50639;53.270;7.956;2023-02-12T08:46:21;104114.09;;;7.85;100.00
64298;BME280;50639;53.270;7.956;2023-02-12T08:48:47;104116.66;;;7.87;100.00
64298;BME280;50639;53.270;7.956;2023-02-12T08:51:22;104047.09;;;7.85;100.00
64298;BME280;50639;53.270;7.956;2023-02-12T08:53:51;104109.72;;;7.84;100.00
64298;BME280;50639;53.270;7.956;2023-02-12T08:56:18;104101.94;;;7.81;100.00
64298;BME280;50639;53.270;7.956;2023-02-12T08:58:44;104111.09;;;7.79;100.00
64298;BME280;50639;53.270;7.956;2023-02-12T09:01:13;104227.97;;;7.80;100.00
64298;BME280;50639;53.270;7.956;2023-02-12T09:03:41;104106.13;;;7.74;100.00
64298;BME280;50639;53.270;7.956;2023-02-12T09:06:08;104223.00;;;7.75;100.00
64298;BME280;50639;53.270;7.956;2023-02-12T09:08:35;104048.75;;;7.56;100.00
64298;BME280;50639;53.270;7.956;2023-02-12T09:11:09;104340.13;;;7.73;100.00
64298;BME280;50639;53.270;7.956;2023-02-12T09:13:35;104476.53;;;7.87;100.00
64298;BME280;50639;53.270;7.956;2023-02-12T09:16:02;104286.69;;;7.83;100.00
64298;BME280;50639;53.270;7.956;2023-02-12T09:18:29;104470.59;;;7.95;100.00
64298;BME280;50639;53.270;7.956;2023-02-12T09:21:08;104458.16;;;8.05;100.00
64298;BME280;50639;53.270;7.956;2023-02-12T09:23:35;104285.63;;;8.06;100.00
64298;BME280;50639;53.270;7.956;2023-02-12T09:26:12;104484.34;;;8.12;100.00
64298;BME280;50639;53.270;7.956;2023-02-12T09:28:40;104705.69;;;8.27;100.00
64298;BME280;50639;53.270;7.956;2023-02-12T09:31:12;104811.78;;;8.43;100.00
64298;BME280;50639;53.270;7.956;2023-02-12T09:33:39;104704.75;;;8.39;100.00
64298;BME280;50639;53.270;7.956;2023-02-12T09:36:08;104679.38;;;8.32;100.00
64298;BME280;50639;53.270;7.956;2023-02-12T09:38:34;104926.28;;;8.42;100.00
64298;BME280;50639;53.270;7.956;2023-02-12T09:49:08;105164.16;;;8.42;100.00
64298;BME280;50639;53.270;7.956;2023-02-12T09:51:40;105277.91;;;8.52;100.00
64298;BME280;50639;53.270;7.956;2023-02-12T09:54:16;105261.06;;;8.50;100.00
64298;BME280;50639;53.270;7.956;2023-02-12T09:56:47;105605.13;;;8.67;100.00
64298;BME280;50639;53.270;7.956;2023-02-12T10:01:47;105622.53;;;8.74;100.00
64298;BME280;50639;53.270;7.956;2023-02-12T10:04:12;105531.09;;;8.77;100.00
64298;BME280;50639;53.270;7.956;2023-02-12T10:06:50;105573.22;;;8.89;100.00
64298;BME280;50639;53.270;7.956;2023-02-12T10:23:27;105724.06;;;8.96;100.00
64298;BME280;50639;53.270;7.956;2023-02-12T10:26:07;105531.03;;;8.91;100.00
64298;BME280;50639;53.270;7.956;2023-02-12T10:28:39;105804.91;;;9.05;100.00
64298;BME280;50639;53.270;7.956;2023-02-12T10:31:29;105798.09;;;9.14;100.00
64298;BME280;50639;53.270;7.956;2023-02-12T10:33:56;105816.50;;;9.20;100.00
64298;BME280;50639;53.270;7.956;2023-02-12T10:36:44;105854.78;;;9.23;100.00
64298;BME280;50639;53.270;7.956;2023-02-12T10:39:14;105815.63;;;9.19;100.00
64298;BME280;50639;53.270;7.956;2023-02-12T10:41:51;105707.34;;;9.05;100.00
64298;BME280;50639;53.270;7.956;2023-02-12T10:44:19;106041.66;;;9.13;100.00
64298;BME280;50639;53.270;7.956;2023-02-12T10:46:45;106279.50;;;9.19;100.00
64298;BME280;50639;53.270;7.956;2023-02-12T10:49:12;106472.63;;;9.25;100.00
64298;BME280;50639;53.270;7.956;2023-02-12T10:57:07;106792.59;;;9.39;100.00
64298;BME280;50639;53.270;7.956;2023-02-12T10:59:35;106967.19;;;9.42;100.00
64298;BME280;50639;53.270;7.956;2023-02-12T11:02:01;107044.16;;;9.45;100.00
64298;BME280;50639;53.270;7.956;2023-02-12T11:04:29;107180.19;;;9.49;100.00
64298;BME280;50639;53.270;7.956;2023-02-12T11:07:07;107287.66;;;9.50;100.00
64298;BME280;50639;53.270;7.956;2023-02-12T11:09:39;107512.34;;;9.57;100.00
64298;BME280;50639;53.270;7.956;2023-02-12T11:14:48;107320.75;;;9.52;100.00
64298;BME280;50639;53.270;7.956;2023-02-12T11:17:26;107508.72;;;9.58;100.00
64298;BME280;50639;53.270;7.956;2023-02-12T11:20:27;107852.38;;;9.76;100.00
64298;BME280;50639;53.270;7.956;2023-02-12T11:23:02;107542.50;;;9.65;100.00
64298;BME280;50639;53.270;7.956;2023-02-12T11:25:35;107459.34;;;9.61;100.00
64298;BME280;50639;53.270;7.956;2023-02-12T11:28:17;107577.78;;;9.58;100.00
64298;BME280;50639;53.270;7.956;2023-02-12T11:30:50;107589.47;;;9.57;100.00
64298;BME280;50639;53.270;7.956;2023-02-12T11:35:54;107533.84;;;9.57;100.00
64298;BME280;50639;53.270;7.956;2023-02-12T11:38:29;107947.56;;;9.72;100.00
64298;BME280;50639;53.270;7.956;2023-02-12T11:40:58;107720.91;;;9.66;100.00
64298;BME280;50639;53.270;7.956;2023-02-12T11:43:26;107290.47;;;9.47;100.00
64298;BME280;50639;53.270;7.956;2023-02-12T11:45:55;107625.19;;;9.60;100.00
64298;BME280;50639;53.270;7.956;2023-02-12T11:48:31;107476.47;;;9.58;100.00
64298;BME280;50639;53.270;7.956;2023-02-12T11:51:02;107481.50;;;9.67;100.00
64298;BME280;50639;53.270;7.956;2023-02-12T11:53:33;106982.75;;;9.54;100.00
64298;BME280;50639;53.270;7.956;2023-02-12T11:56:03;107150.06;;;9.61;100.00
64298;BME280;50639;53.270;7.956;2023-02-12T11:58:29;107193.63;;;9.69;100.00
64298;BME280;50639;53.270;7.956;2023-02-12T12:01:02;107408.94;;;9.87;100.00
64298;BME280;50639;53.270;7.956;2023-02-12T12:03:52;107397.84;;;9.95;100.00
64298;BME280;50639;53.270;7.956;2023-02-12T12:09:28;107370.75;;;9.99;100.00
64298;BME280;50639;53.270;7.956;2023-02-12T12:12:21;107410.31;;;9.97;100.00
64298;BME280;50639;53.270;7.956;2023-02-12T12:14:59;107522.38;;;9.98;100.00
64298;BME280;50639;53.270;7.956;2023-02-12T12:20:51;107848.69;;;10.05;100.00
64298;BME280;50639;53.270;7.956;2023-02-12T12:23:24;108113.00;;;10.18;100.00
64298;BME280;50639;53.270;7.956;2023-02-12T12:26:02;107323.66;;;9.89;100.00
64298;BME280;50639;53.270;7.956;2023-02-12T12:28:43;107586.13;;;9.96;100.00
64298;BME280;50639;53.270;7.956;2023-02-12T12:31:18;107574.31;;;10.00;100.00
64298;BME280;50639;53.270;7.956;2023-02-12T12:33:48;107705.75;;;10.13;100.00
64298;BME280;50639;53.270;7.956;2023-02-12T12:39:05;107998.94;;;10.46;100.00
64298;BME280;50639;53.270;7.956;2023-02-12T12:49:33;107761.72;;;10.51;100.00
64298;BME280;50639;53.270;7.956;2023-02-12T13:01:30;107551.03;;;10.44;100.00
64298;BME280;50639;53.270;7.956;2023-02-12T13:07:12;108056.69;;;10.64;100.00
64298;BME280;50639;53.270;7.956;2023-02-12T13:15:32;107930.16;;;10.61;100.00
64298;BME280;50639;53.270;7.956;2023-02-12T13:20:39;107798.50;;;10.52;100.00
64298;BME280;50639;53.270;7.956;2023-02-12T13:23:18;107905.31;;;10.53;100.00
64298;BME280;50639;53.270;7.956;2023-02-12T13:28:31;107616.59;;;10.43;100.00
64298;BME280;50639;53.270;7.956;2023-02-12T13:30:59;107474.88;;;10.41;100.00
64298;BME280;50639;53.270;7.956;2023-02-12T13:33:36;107794.88;;;10.53;100.00
64298;BME280;50639;53.270;7.956;2023-02-12T13:36:05;107570.63;;;10.48;100.00
64298;BME280;50639;53.270;7.956;2023-02-12T13:38:37;106882.66;;;10.21;100.00
64298;BME280;50639;53.270;7.956;2023-02-12T13:41:06;107060.09;;;10.25;100.00
64298;BME280;50639;53.270;7.956;2023-02-12T13:52:43;108343.06;;;10.97;100.00
64298;BME280;50639;53.270;7.956;2023-02-12T13:55:28;108193.81;;;10.99;100.00
64298;BME280;50639;53.270;7.956;2023-02-12T14:00:59;108028.94;;;10.86;100.00
64298;BME280;50639;53.270;7.956;2023-02-12T14:03:26;108035.25;;;10.85;100.00
64298;BME280;50639;53.270;7.956;2023-02-12T14:06:16;108144.78;;;10.88;100.00
64298;BME280;50639;53.270;7.956;2023-02-12T14:08:50;108152.91;;;10.86;100.00
64298;BME280;50639;53.270;7.956;2023-02-12T14:11:19;108358.44;;;10.93;100.00
64298;BME280;50639;53.270;7.956;2023-02-12T14:13:51;108057.84;;;10.81;100.00
64298;BME280;50639;53.270;7.956;2023-02-12T14:21:39;108458.16;;;10.95;100.00
64298;BME280;50639;53.270;7.956;2023-02-12T14:27:06;108468.78;;;11.01;100.00
64298;BME280;50639;53.270;7.956;2023-02-12T14:35:36;108312.53;;;10.96;100.00
64298;BME280;50639;53.270;7.956;2023-02-12T14:49:34;108227.38;;;10.89;100.00
64298;BME280;50639;53.270;7.956;2023-02-12T14:54:57;108437.38;;;10.98;100.00
64298;BME280;50639;53.270;7.956;2023-02-12T14:57:35;108322.41;;;10.97;100.00
64298;BME280;50639;53.270;7.956;2023-02-12T15:02:31;108321.19;;;11.07;100.00
64298;BME280;50639;53.270;7.956;2023-02-12T15:05:05;107989.03;;;10.96;100.00
64298;BME280;50639;53.270;7.956;2023-02-12T15:07:42;108221.44;;;11.06;100.00
64298;BME280;50639;53.270;7.956;2023-02-12T15:10:15;108208.78;;;11.08;100.00
64298;BME280;50639;53.270;7.956;2023-02-12T15:13:14;107910.78;;;10.99;100.00
64298;BME280;50639;53.270;7.956;2023-02-12T15:15:51;108022.94;;;11.03;100.00
64298;BME280;50639;53.270;7.956;2023-02-12T15:18:41;107781.59;;;10.93;100.00
64298;BME280;50639;53.270;7.956;2023-02-12T15:21:18;107632.69;;;10.88;100.00
64298;BME280;50639;53.270;7.956;2023-02-12T15:23:55;107604.84;;;10.87;100.00
64298;BME280;50639;53.270;7.956;2023-02-12T15:26:23;107555.59;;;10.84;100.00
64298;BME280;50639;53.270;7.956;2023-02-12T15:28:51;107213.19;;;10.70;100.00
64298;BME280;50639;53.270;7.956;2023-02-12T15:31:20;107147.66;;;10.69;100.00
64298;BME280;50639;53.270;7.956;2023-02-12T15:33:51;107153.91;;;10.70;100.00
64298;BME280;50639;53.270;7.956;2023-02-12T15:36:20;107300.84;;;10.77;100.00
64298;BME280;50639;53.270;7.956;2023-02-12T15:38:55;107180.56;;;10.76;100.00